Time;durP1;ratioP1;P1;durP2;ratioP2;P2;SDS_P1;SDS_P2;PMS_P1;PMS_P2;Temp;Humidity;BMP_temperature;BMP_pressure;BME280_temperature;BME280_humidity;BME280_pressure;Samples;Min_cycle;Max_cycle;Signal;HPM_P1;HPM_P2
2022/04/16 00:01:21;;;;;;;8.35;6.93;;;;;;;7.13;75.54;102246.56;4963688;28;21636;-70
2022/04/16 00:03:47;;;;;;;8.65;7.10;;;;;;;7.07;75.52;102256.56;4951801;28;20807;-70
2022/04/16 00:06:12;;;;;;;7.82;7.22;;;;;;;7.05;76.08;102254.88;4973998;28;20015;-70
2022/04/16 00:08:37;;;;;;;11.30;7.95;;;;;;;7.16;75.86;102245.56;4949847;28;20199;-71
2022/04/16 00:11:06;;;;;;;8.77;7.82;;;;;;;7.29;75.28;102245.78;4943604;28;20010;-70
2022/04/16 00:13:32;;;;;;;8.48;7.45;;;;;;;7.26;75.90;102249.44;4945045;28;20114;-70
2022/04/16 00:15:57;;;;;;;9.35;8.45;;;;;;;7.55;75.22;102247.94;4956774;28;20022;-70
2022/04/16 00:18:23;;;;;;;9.32;8.52;;;;;;;7.31;75.66;102243.94;4937651;28;20007;-70
2022/04/16 00:20:49;;;;;;;9.25;8.45;;;;;;;7.37;75.79;102241.00;4965454;28;20484;-70
2022/04/16 00:23:15;;;;;;;10.13;9.13;;;;;;;7.44;76.29;102238.91;4956149;28;20014;-70
2022/04/16 00:25:41;;;;;;;10.75;9.73;;;;;;;7.50;76.37;102241.19;4973071;28;20023;-70
2022/04/16 00:28:08;;;;;;;9.93;9.13;;;;;;;7.59;76.16;102240.72;4967860;28;19998;-70
2022/04/16 00:30:37;;;;;;;10.35;9.32;;;;;;;7.62;76.45;102223.91;4973882;28;20092;-70
2022/04/16 00:33:05;;;;;;;9.88;9.07;;;;;;;7.51;76.58;102230.59;4956493;28;20177;-71
2022/04/16 00:35:30;;;;;;;10.63;9.35;;;;;;;7.66;76.60;102236.00;4966010;28;20025;-72
2022/04/16 00:37:55;;;;;;;13.50;9.98;;;;;;;7.65;76.32;102239.56;4951183;28;20010;-71
2022/04/16 00:40:21;;;;;;;10.50;9.45;;;;;;;7.64;76.40;102238.72;4974474;28;21077;-71
2022/04/16 00:42:46;;;;;;;10.10;9.02;;;;;;;7.53;76.90;102234.00;4948718;28;20654;-71
2022/04/16 00:45:12;;;;;;;10.55;9.55;;;;;;;7.57;76.78;102242.56;4957875;28;20523;-70
2022/04/16 00:47:38;;;;;;;10.18;9.23;;;;;;;7.75;76.12;102235.50;4956058;28;20053;-71
2022/04/16 00:50:04;;;;;;;10.65;9.65;;;;;;;7.69;76.20;102233.19;4974294;28;20030;-70
2022/04/16 00:52:30;;;;;;;10.80;9.80;;;;;;;7.68;76.60;102234.13;4962863;28;20087;-70
2022/04/16 00:54:55;;;;;;;10.73;9.82;;;;;;;7.69;76.71;102243.75;4947842;28;20471;-70
2022/04/16 00:57:21;;;;;;;11.45;9.90;;;;;;;7.62;76.86;102240.56;4954324;28;20030;-69
2022/04/16 00:59:46;;;;;;;10.68;9.38;;;;;;;7.50;77.38;102242.06;4942381;28;20053;-69
2022/04/16 01:02:12;;;;;;;10.30;9.30;;;;;;;7.52;76.90;102242.00;4969885;28;20030;-70
2022/04/16 01:04:38;;;;;;;10.30;9.30;;;;;;;7.52;77.25;102252.53;4973113;28;20021;-71
2022/04/16 01:07:06;;;;;;;10.88;9.88;;;;;;;7.56;77.10;102246.16;4974651;28;20011;-70
2022/04/16 01:09:32;;;;;;;11.63;9.88;;;;;;;7.59;77.28;102247.75;4973256;28;20145;-72
2022/04/16 01:11:57;;;;;;;10.18;9.32;;;;;;;7.64;76.28;102246.63;4967109;28;20002;-69
2022/04/16 01:14:25;;;;;;;10.73;9.73;;;;;;;7.72;75.86;102238.31;4942806;28;20574;-72
2022/04/16 01:16:52;;;;;;;10.00;9.10;;;;;;;7.81;75.82;102240.47;4953725;28;20566;-70
2022/04/16 01:19:21;;;;;;;10.68;9.68;;;;;;;7.71;75.91;102250.63;4958516;28;20237;-69
2022/04/16 01:21:46;;;;;;;10.15;9.25;;;;;;;7.79;75.28;102247.56;4938622;28;20049;-71
2022/04/16 01:24:14;;;;;;;11.35;9.93;;;;;;;7.87;74.84;102247.19;4954658;28;20011;-71
2022/04/16 01:26:42;;;;;;;10.57;9.65;;;;;;;7.84;74.81;102250.84;4949598;28;20142;-71
2022/04/16 01:29:08;;;;;;;10.45;9.55;;;;;;;7.78;75.57;102242.41;4954713;28;20025;-70
2022/04/16 01:31:34;;;;;;;12.68;9.52;;;;;;;7.77;75.52;102238.03;4960125;28;20122;-69
2022/04/16 01:34:00;;;;;;;11.30;10.10;;;;;;;7.73;76.11;102245.28;4948718;28;20018;-70
2022/04/16 01:36:29;;;;;;;11.65;10.55;;;;;;;7.67;76.37;102257.00;4970434;28;20022;-70
2022/04/16 01:38:58;;;;;;;11.60;10.43;;;;;;;7.57;76.96;102255.75;4973314;28;20002;-70
2022/04/16 01:41:29;;;;;;;10.70;9.70;;;;;;;7.64;76.73;102251.88;4946418;28;20507;-70
2022/04/16 01:43:56;;;;;;;10.63;9.63;;;;;;;7.57;76.25;102259.25;4953850;28;20019;-70
2022/04/16 01:46:21;;;;;;;11.23;10.23;;;;;;;7.38;76.44;102266.41;4947779;28;20076;-69
2022/04/16 01:48:49;;;;;;;10.23;9.35;;;;;;;7.30;76.96;102269.41;4958003;28;20026;-69
2022/04/16 01:51:17;;;;;;;10.43;9.38;;;;;;;7.24;77.03;102263.63;4960421;28;20159;-70
2022/04/16 01:53:44;;;;;;;10.18;9.23;;;;;;;7.16;77.26;102266.63;4937479;28;20117;-70
2022/04/16 01:56:10;;;;;;;10.38;9.38;;;;;;;7.37;76.17;102264.69;4962089;28;20476;-70
2022/04/16 01:58:38;;;;;;;11.00;10.00;;;;;;;7.25;76.66;102267.94;4960937;28;20791;-70
2022/04/16 02:01:03;;;;;;;10.68;9.68;;;;;;;7.25;76.43;102262.66;4966310;28;20440;-70
2022/04/16 02:03:29;;;;;;;10.18;9.27;;;;;;;7.12;76.56;102265.94;4967872;28;20010;-70
2022/04/16 02:05:54;;;;;;;10.27;9.27;;;;;;;7.07;76.44;102265.31;4966434;28;20528;-71
2022/04/16 02:08:20;;;;;;;9.80;8.90;;;;;;;7.12;75.66;102268.56;4954730;28;20022;-69
2022/04/16 02:10:45;;;;;;;10.93;9.60;;;;;;;7.19;75.50;102271.72;4971147;28;20096;-71
2022/04/16 02:13:10;;;;;;;10.32;9.32;;;;;;;7.15;75.83;102268.41;4940853;28;20036;-71
2022/04/16 02:15:36;;;;;;;10.38;9.38;;;;;;;6.86;76.66;102278.59;4972776;28;20778;-71
2022/04/16 02:18:01;;;;;;;11.38;10.27;;;;;;;6.72;77.11;102283.66;4937316;28;20433;-70
2022/04/16 02:20:26;;;;;;;11.18;9.88;;;;;;;6.68;77.51;102296.13;4964083;28;20774;-70
2022/04/16 02:22:52;;;;;;;10.70;9.70;;;;;;;6.86;76.78;102283.84;4949299;28;20035;-70
2022/04/16 02:25:18;;;;;;;10.55;9.65;;;;;;;6.75;76.95;102293.19;4959523;28;20011;-70
2022/04/16 02:27:44;;;;;;;11.38;10.27;;;;;;;6.89;77.13;102296.00;4948156;28;20126;-70
2022/04/16 02:30:11;;;;;;;11.35;10.25;;;;;;;6.60;77.12;102294.78;4954415;28;20099;-70
2022/04/16 02:32:39;;;;;;;10.77;9.77;;;;;;;6.47;77.69;102295.38;4943578;28;20011;-70
2022/04/16 02:35:08;;;;;;;10.95;9.98;;;;;;;6.58;77.23;102294.00;4952872;28;20053;-70
2022/04/16 02:37:33;;;;;;;10.95;9.85;;;;;;;6.70;76.84;102290.81;4934815;28;20015;-70
2022/04/16 02:39:59;;;;;;;11.00;9.93;;;;;;;6.53;77.29;102300.34;4936960;28;20054;-70
2022/04/16 02:42:24;;;;;;;11.38;10.25;;;;;;;6.62;77.47;102298.19;4958963;28;21002;-70
2022/04/16 02:47:33;;;;;;;10.70;9.80;;;;;;;6.53;77.07;102296.84;4966326;28;20398;-70
2022/04/16 02:49:59;;;;;;;11.50;10.40;;;;;;;6.44;77.73;102300.75;4954796;28;20722;-70
2022/04/16 02:52:25;;;;;;;12.10;10.82;;;;;;;6.37;77.90;102299.34;4933765;28;20623;-70
2022/04/16 02:54:52;;;;;;;10.95;9.95;;;;;;;6.49;77.63;102303.19;4940270;28;20022;-69
2022/04/16 02:57:18;;;;;;;11.82;10.63;;;;;;;6.40;77.76;102307.06;4992585;28;20442;-71
2022/04/16 02:59:43;;;;;;;11.70;10.15;;;;;;;6.49;77.77;102309.28;4994654;28;20030;-70
2022/04/16 03:02:08;;;;;;;10.70;9.75;;;;;;;6.43;77.45;102308.72;4943525;28;20271;-69
2022/04/16 03:04:34;;;;;;;11.02;9.93;;;;;;;6.39;77.28;102304.50;4950117;28;20010;-70
2022/04/16 03:06:59;;;;;;;11.80;10.70;;;;;;;6.27;77.68;102308.56;4953780;28;20034;-70
2022/04/16 03:09:24;;;;;;;12.07;10.93;;;;;;;6.10;78.94;102301.44;4966349;28;20030;-69
2022/04/16 03:11:50;;;;;;;11.68;10.48;;;;;;;6.22;77.82;102305.28;4966103;28;20401;-70
2022/04/16 03:19:45;;;;;;;12.68;10.55;;;;;;;6.13;78.75;102307.41;4960200;28;20528;-70
2022/04/16 03:22:11;;;;;;;12.02;10.95;;;;;;;6.18;78.21;102308.06;4957333;28;20030;-71
2022/04/16 03:24:36;;;;;;;12.40;11.20;;;;;;;6.28;77.21;102312.91;4963322;28;20022;-70
2022/04/16 03:27:02;;;;;;;12.10;10.82;;;;;;;6.29;77.73;102317.22;4943461;28;20018;-70
2022/04/16 03:29:27;;;;;;;11.80;10.73;;;;;;;6.18;78.38;102310.69;4960881;28;20011;-69
2022/04/16 03:31:53;;;;;;;12.13;10.93;;;;;;;6.11;78.31;102308.44;4951398;28;20015;-70
2022/04/16 03:34:18;;;;;;;13.48;11.07;;;;;;;5.93;79.45;102310.06;4961419;28;20733;-69
2022/04/16 03:36:43;;;;;;;15.68;11.80;;;;;;;6.11;78.45;102314.53;4953516;28;20023;-70
2022/04/16 03:39:09;;;;;;;12.15;10.98;;;;;;;6.03;79.00;102321.88;4936076;28;20018;-71
2022/04/16 03:41:34;;;;;;;13.25;11.52;;;;;;;5.91;78.82;102315.38;4962703;28;20022;-69
2022/04/16 03:44:00;;;;;;;14.88;11.38;;;;;;;5.90;79.17;102312.81;4965252;28;20189;-69
2022/04/16 03:46:25;;;;;;;15.18;10.55;;;;;;;5.91;78.56;102319.75;4956909;28;20023;-69
2022/04/16 03:48:50;;;;;;;11.80;10.55;;;;;;;6.09;77.86;102321.63;4948668;28;20018;-70
2022/04/16 03:51:16;;;;;;;13.60;12.30;;;;;;;6.01;79.24;102323.75;4949702;28;20011;-70
2022/04/16 03:53:41;;;;;;;11.93;10.85;;;;;;;5.99;78.86;102330.81;4953118;28;20038;-69
2022/04/16 03:59:59;;;;;;;13.13;11.80;;;;;;;6.06;78.35;102324.38;4968552;28;20025;-70
2022/04/16 04:01:42;;;;;;;12.27;11.13;;;;;;;6.07;78.17;102323.47;4957802;28;20042;-69
2022/04/16 04:04:07;;;;;;;12.80;11.57;;;;;;;6.00;79.10;102317.63;4967264;28;20031;-69
2022/04/16 04:06:32;;;;;;;13.20;11.80;;;;;;;5.93;78.47;102320.56;4964377;28;20477;-70
2022/04/16 04:08:58;;;;;;;12.68;11.40;;;;;;;5.82;78.68;102318.41;4967305;28;20418;-70
2022/04/16 04:11:23;;;;;;;15.30;11.60;;;;;;;5.84;78.73;102322.69;4956672;28;20011;-70
2022/04/16 04:13:49;;;;;;;12.35;11.25;;;;;;;5.76;78.89;102330.03;4950252;28;20007;-70
2022/04/16 04:16:14;;;;;;;12.73;11.52;;;;;;;5.67;78.97;102322.56;4956971;28;20054;-70
2022/04/16 04:18:39;;;;;;;12.00;10.90;;;;;;;5.52;79.98;102325.84;4956537;28;20015;-70
2022/04/16 04:21:05;;;;;;;12.98;11.68;;;;;;;5.42;80.17;102323.59;4952801;28;20814;-70
2022/04/16 04:23:30;;;;;;;13.07;11.77;;;;;;;5.48;80.02;102336.44;4973943;28;20207;-70
2022/04/16 04:25:56;;;;;;;13.55;12.25;;;;;;;5.47;79.40;102334.75;4970769;28;20817;-70
2022/04/16 04:28:21;;;;;;;13.02;11.63;;;;;;;5.42;79.87;102330.63;4981959;28;20121;-69
2022/04/16 04:30:46;;;;;;;14.27;12.40;;;;;;;5.54;79.45;102337.13;4953519;28;20041;-70
2022/04/16 04:33:12;;;;;;;14.48;12.02;;;;;;;5.65;79.16;102343.66;4966778;28;20030;-70
2022/04/16 04:35:37;;;;;;;13.00;11.75;;;;;;;5.38;80.49;102343.00;4972986;28;20949;-70
2022/04/16 04:38:03;;;;;;;13.98;12.27;;;;;;;5.52;80.60;102346.84;4973642;28;20151;-70
2022/04/16 04:40:29;;;;;;;13.00;11.70;;;;;;;5.47;80.29;102347.91;4972733;28;20030;-70
2022/04/16 04:42:54;;;;;;;12.77;11.50;;;;;;;5.46;80.48;102343.56;4943932;28;20038;-69
2022/04/16 04:45:19;;;;;;;12.52;10.73;;;;;;;5.49;80.37;102353.91;4952102;28;20023;-69
2022/04/16 04:47:45;;;;;;;13.05;11.85;;;;;;;5.61;81.00;102362.19;4955004;28;20034;-70
2022/04/16 04:50:10;;;;;;;13.00;11.77;;;;;;;5.65;80.36;102359.41;4953426;28;20019;-70
2022/04/16 04:52:36;;;;;;;13.23;11.90;;;;;;;5.72;80.01;102367.00;4958395;28;20619;-70
2022/04/16 04:55:02;;;;;;;12.63;11.48;;;;;;;5.78;79.30;102358.84;4952629;28;20696;-70
2022/04/16 04:57:28;;;;;;;13.23;11.80;;;;;;;5.76;79.45;102365.97;4945179;28;20213;-70
2022/04/16 04:59:53;;;;;;;13.00;11.73;;;;;;;5.78;79.45;102367.63;4953025;28;20126;-69
2022/04/16 05:02:18;;;;;;;13.25;11.90;;;;;;;5.93;79.13;102367.88;4954928;28;20026;-69
2022/04/16 05:04:44;;;;;;;12.90;11.70;;;;;;;5.84;79.05;102372.59;4973451;28;20987;-70
2022/04/16 05:07:09;;;;;;;13.43;12.02;;;;;;;5.95;79.58;102372.13;4968752;28;20662;-70
2022/04/16 05:09:35;;;;;;;14.48;11.40;;;;;;;5.98;79.75;102372.03;4937029;28;20980;-70
2022/04/16 05:12:00;;;;;;;15.90;12.52;;;;;;;6.00;79.31;102378.06;4965812;28;20014;-70
2022/04/16 05:14:26;;;;;;;14.35;12.95;;;;;;;6.06;79.75;102384.81;4936247;28;20077;-70
2022/04/16 05:16:51;;;;;;;15.98;13.35;;;;;;;6.09;79.96;102384.72;4957273;28;20011;-69
2022/04/16 05:19:16;;;;;;;15.90;13.18;;;;;;;6.19;80.70;102391.25;4938207;28;20496;-70
2022/04/16 05:21:42;;;;;;;14.40;13.02;;;;;;;6.24;80.86;102393.69;4966567;28;20037;-70
2022/04/16 05:24:07;;;;;;;14.50;13.02;;;;;;;6.50;80.33;102389.91;4927729;28;20019;-70
2022/04/16 05:26:33;;;;;;;15.27;13.45;;;;;;;6.53;79.83;102394.16;4963245;28;20037;-70
2022/04/16 05:28:59;;;;;;;15.45;13.68;;;;;;;6.60;79.53;102392.97;4951433;28;20050;-70
2022/04/16 05:31:26;;;;;;;15.13;13.52;;;;;;;6.69;79.27;102395.16;4959098;28;20048;-70
2022/04/16 05:36:36;;;;;;;14.88;13.38;;;;;;;6.93;78.73;102404.63;4958394;28;20113;-70
2022/04/16 05:39:01;;;;;;;15.85;13.55;;;;;;;7.03;79.38;102403.25;4940524;28;20018;-71
2022/04/16 05:41:27;;;;;;;16.15;13.75;;;;;;;7.01;79.09;102408.59;4953127;28;20030;-69
2022/04/16 05:43:53;;;;;;;15.05;13.60;;;;;;;7.12;79.00;102409.84;4950989;28;20017;-69
2022/04/16 05:46:18;;;;;;;15.30;13.75;;;;;;;7.13;79.31;102414.22;4954024;28;20993;-72
2022/04/16 05:48:44;;;;;;;15.90;13.65;;;;;;;7.21;79.24;102417.34;4951453;28;20379;-70
2022/04/16 05:51:10;;;;;;;15.85;14.23;;;;;;;7.38;78.61;102411.25;4936575;28;20015;-70
2022/04/16 05:53:35;;;;;;;15.27;13.68;;;;;;;7.45;78.66;102420.56;4945460;28;20048;-69
2022/04/16 05:56:00;;;;;;;14.85;13.35;;;;;;;7.61;77.94;102418.00;4951557;28;20010;-70
2022/04/16 05:58:26;;;;;;;16.02;14.32;;;;;;;7.70;77.48;102424.63;4963568;28;20015;-68
2022/04/16 06:00:51;;;;;;;14.27;12.77;;;;;;;7.84;77.49;102424.78;4947713;28;21023;-70
2022/04/16 06:03:17;;;;;;;14.80;13.30;;;;;;;7.96;77.29;102427.72;4945814;28;20034;-69
2022/04/16 06:05:42;;;;;;;14.77;13.32;;;;;;;8.08;77.22;102425.31;4960627;28;20045;-71
2022/04/16 06:08:07;;;;;;;16.27;14.45;;;;;;;8.20;77.34;102434.34;4979782;28;20338;-70
2022/04/16 06:10:33;;;;;;;15.95;14.00;;;;;;;8.33;76.50;102433.72;4989816;28;20099;-70
2022/04/16 06:12:58;;;;;;;15.52;13.82;;;;;;;8.42;76.54;102430.63;4965787;28;20022;-70
2022/04/16 06:15:24;;;;;;;15.77;14.07;;;;;;;8.47;76.75;102430.41;4953660;28;20053;-70
2022/04/16 06:17:49;;;;;;;14.82;13.30;;;;;;;8.61;76.18;102432.31;4936178;28;20019;-70
2022/04/16 06:20:15;;;;;;;16.75;14.55;;;;;;;8.69;76.21;102438.03;4949752;28;20120;-69
2022/04/16 06:22:40;;;;;;;17.73;15.20;;;;;;;8.76;75.69;102431.47;4954474;28;20033;-70
2022/04/16 06:25:08;;;;;;;18.60;15.10;;;;;;;8.82;76.00;102441.69;4973677;28;20076;-71
2022/04/16 06:27:38;;;;;;;17.33;15.23;;;;;;;8.88;75.76;102438.72;4942339;28;20022;-71
2022/04/16 06:30:08;;;;;;;18.33;14.95;;;;;;;8.83;76.17;102447.84;4949572;28;20015;-70
2022/04/16 06:32:34;;;;;;;18.90;15.50;;;;;;;8.79;76.73;102441.03;4951492;28;20577;-71
2022/04/16 06:35:00;;;;;;;16.90;15.10;;;;;;;8.93;75.86;102443.75;4945072;28;20939;-70
2022/04/16 06:37:25;;;;;;;16.67;15.00;;;;;;;8.99;75.31;102432.84;4949955;28;20118;-71
2022/04/16 06:39:50;;;;;;;17.48;15.60;;;;;;;9.02;75.71;102440.59;4942470;28;20116;-71
2022/04/16 06:42:16;;;;;;;16.08;14.38;;;;;;;9.13;75.13;102450.56;4953054;28;20045;-72
2022/04/16 06:44:41;;;;;;;16.65;14.95;;;;;;;9.30;74.14;102441.69;4957092;28;20473;-70
2022/04/16 06:47:06;;;;;;;15.93;14.15;;;;;;;9.40;74.33;102447.31;4932083;28;20210;-71
2022/04/16 06:49:32;;;;;;;16.02;14.32;;;;;;;9.50;73.73;102459.06;4935521;28;20624;-70
2022/04/16 06:51:57;;;;;;;15.45;13.85;;;;;;;9.65;73.73;102454.69;4952439;28;20026;-71
2022/04/16 06:54:23;;;;;;;14.95;13.30;;;;;;;9.79;73.42;102449.44;4958895;28;20029;-69
2022/04/16 06:56:48;;;;;;;15.10;13.50;;;;;;;9.88;72.87;102456.00;4958461;28;20980;-70
2022/04/16 06:59:14;;;;;;;15.23;13.65;;;;;;;9.89;71.75;102452.41;4963165;28;20483;-70
2022/04/16 07:01:39;;;;;;;15.05;13.50;;;;;;;10.02;71.82;102454.34;4968469;28;20042;-70
2022/04/16 07:04:04;;;;;;;14.80;13.32;;;;;;;10.08;72.28;102449.53;4963304;28;20084;-70
2022/04/16 07:06:30;;;;;;;15.68;14.05;;;;;;;10.03;72.32;102458.69;4941560;28;20025;-70
2022/04/16 07:08:55;;;;;;;14.95;13.38;;;;;;;10.04;72.28;102455.97;4940762;28;20014;-71
2022/04/16 07:11:21;;;;;;;15.35;13.75;;;;;;;10.07;71.58;102466.34;4939866;28;20775;-70
2022/04/16 07:13:46;;;;;;;15.50;13.02;;;;;;;10.16;70.98;102457.00;4977360;28;20461;-71
2022/04/16 07:16:11;;;;;;;14.60;13.10;;;;;;;10.17;70.68;102456.06;4967223;28;20010;-70
2022/04/16 07:18:37;;;;;;;15.80;11.80;;;;;;;10.35;69.81;102461.22;4927169;28;20191;-71
2022/04/16 07:21:02;;;;;;;14.40;12.77;;;;;;;10.53;69.76;102464.53;4969356;28;20029;-71
2022/04/16 07:23:28;;;;;;;14.43;12.93;;;;;;;10.62;69.90;102456.91;4973512;28;20011;-71
2022/04/16 07:25:53;;;;;;;14.32;12.73;;;;;;;10.69;69.47;102470.63;4972416;28;20011;-71
2022/04/16 07:28:21;;;;;;;14.10;12.65;;;;;;;10.68;69.11;102458.31;4971390;28;20937;-72
2022/04/16 07:30:50;;;;;;;13.48;12.18;;;;;;;10.60;68.45;102457.94;4956320;28;20027;-71
2022/04/16 07:33:16;;;;;;;12.75;11.52;;;;;;;10.67;68.03;102461.06;4941133;28;20007;-71
2022/04/16 07:35:41;;;;;;;12.88;11.68;;;;;;;10.67;68.24;102456.59;4971763;28;20014;-71
2022/04/16 07:38:07;;;;;;;14.32;11.63;;;;;;;10.74;67.80;102451.78;4957041;28;20949;-71
2022/04/16 07:40:34;;;;;;;12.63;11.27;;;;;;;10.84;67.73;102450.25;4958382;28;20262;-70
2022/04/16 07:42:59;;;;;;;13.02;11.63;;;;;;;10.87;66.17;102457.16;4943187;28;20965;-70
2022/04/16 07:45:25;;;;;;;12.70;11.40;;;;;;;10.84;66.92;102468.78;4949859;28;20046;-70
2022/04/16 07:47:50;;;;;;;12.82;11.55;;;;;;;10.82;67.21;102460.94;4970342;28;20850;-70
2022/04/16 07:50:16;;;;;;;12.68;11.48;;;;;;;10.97;67.21;102455.63;4964784;28;20307;-70
2022/04/16 07:52:42;;;;;;;13.07;11.50;;;;;;;11.16;66.40;102457.97;4956731;28;21068;-70
2022/04/16 07:55:08;;;;;;;12.68;10.73;;;;;;;11.36;65.73;102453.19;4973370;28;20410;-71
2022/04/16 07:57:33;;;;;;;12.65;11.45;;;;;;;11.42;64.78;102458.06;4957734;28;20018;-70
2022/04/16 07:59:58;;;;;;;13.05;11.73;;;;;;;11.46;65.70;102459.56;4975657;28;20015;-70
2022/04/16 08:02:24;;;;;;;11.20;9.98;;;;;;;11.56;65.21;102450.06;4960118;28;20014;-70
2022/04/16 08:04:49;;;;;;;10.82;9.82;;;;;;;11.36;62.47;102447.88;4964895;28;20406;-70
2022/04/16 08:07:15;;;;;;;10.88;9.88;;;;;;;11.31;62.81;102446.38;4967563;28;20011;-70
2022/04/16 08:09:40;;;;;;;10.60;9.50;;;;;;;11.57;64.68;102457.06;4962037;28;20037;-70
2022/04/16 08:12:05;;;;;;;11.07;9.93;;;;;;;11.81;62.55;102459.03;4961455;28;20018;-71
2022/04/16 08:14:31;;;;;;;10.52;9.43;;;;;;;12.05;62.58;102463.69;4934014;28;20900;-71
2022/04/16 08:16:56;;;;;;;10.45;9.43;;;;;;;12.11;61.39;102455.31;4960730;28;20237;-70
2022/04/16 08:19:23;;;;;;;10.80;9.70;;;;;;;12.11;60.98;102452.66;4959156;28;20014;-70
2022/04/16 08:21:48;;;;;;;10.88;9.88;;;;;;;12.22;60.97;102455.41;4952834;28;20042;-70
2022/04/16 08:24:22;;;;;;;10.07;9.18;;;;;;;12.39;60.15;102451.59;4970513;28;20318;-71
2022/04/16 08:26:47;;;;;;;;;;;;;;;12.81;63.60;102452.19;4965153;28;20011;-72
2022/04/16 08:29:13;;;;;;;9.97;9.07;;;;;;;13.02;58.68;102455.13;4963893;28;19915;-73
2022/04/16 08:31:38;;;;;;;10.38;9.10;;;;;;;12.78;57.88;102457.72;4950809;28;20026;-72
2022/04/16 08:34:04;;;;;;;9.20;8.30;;;;;;;12.80;59.30;102461.09;4968102;28;20023;-72
2022/04/16 08:36:29;;;;;;;8.23;7.53;;;;;;;13.32;58.46;102453.84;4949821;28;20007;-72
2022/04/16 08:38:54;;;;;;;8.10;7.40;;;;;;;13.81;54.64;102464.50;4947994;28;20834;-71
2022/04/16 08:41:20;;;;;;;8.02;7.15;;;;;;;13.78;56.72;102470.06;4957918;28;20031;-73
2022/04/16 08:43:46;;;;;;;7.70;7.00;;;;;;;13.56;53.60;102468.97;4939886;28;20054;-70
2022/04/16 08:46:11;;;;;;;7.35;6.78;;;;;;;13.53;53.29;102466.56;4957022;28;20007;-72
2022/04/16 08:48:36;;;;;;;6.72;6.18;;;;;;;13.62;53.76;102478.31;4970052;28;20018;-71
2022/04/16 08:51:02;;;;;;;7.07;6.47;;;;;;;13.38;52.82;102479.16;4956831;28;20851;-72
2022/04/16 08:53:28;;;;;;;7.60;6.30;;;;;;;13.09;53.28;102484.75;4962150;28;20986;-72
2022/04/16 08:55:53;;;;;;;6.82;6.13;;;;;;;13.47;54.15;102475.00;4961489;28;20173;-70
2022/04/16 08:58:19;;;;;;;6.72;6.22;;;;;;;13.26;51.92;102470.25;4962294;28;20046;-73
2022/04/16 09:00:44;;;;;;;4.30;4.00;;;;;;;13.09;51.88;102486.59;4963348;28;20152;-71
2022/04/16 09:03:09;;;;;;;4.25;3.95;;;;;;;12.98;51.16;102482.88;4969451;28;20372;-72
2022/04/16 09:05:35;;;;;;;4.20;4.00;;;;;;;13.52;51.63;102483.47;4952159;28;20024;-72
2022/04/16 09:08:02;;;;;;;4.65;4.35;;;;;;;14.07;51.40;102481.13;4952621;28;20067;-71
2022/04/16 09:10:28;;;;;;;4.40;4.10;;;;;;;13.51;51.05;102479.13;4951231;28;20401;-72
2022/04/16 09:12:55;;;;;;;4.00;3.80;;;;;;;12.97;51.37;102470.56;4950852;28;20061;-71
2022/04/16 09:15:21;;;;;;;4.05;3.75;;;;;;;13.09;52.02;102473.28;4957894;28;20022;-72
2022/04/16 09:17:59;;;;;;;3.22;3.10;;;;;;;13.37;51.27;102474.81;4965437;28;19995;-70
2022/04/16 09:20:36;;;;;;;2.60;2.50;;;;;;;14.19;50.39;102485.53;4988745;28;20045;-72
2022/04/16 09:23:17;;;;;;;2.10;2.00;;;;;;;14.82;48.17;102476.28;4971666;28;20030;-72
2022/04/16 09:25:42;;;;;;;1.70;1.70;;;;;;;14.72;46.27;102477.03;4971951;28;20033;-72
2022/04/16 09:28:08;;;;;;;2.70;1.80;;;;;;;14.70;46.87;102473.63;4957833;28;20022;-71
2022/04/16 09:30:34;;;;;;;1.83;1.73;;;;;;;15.24;46.01;102477.31;4955362;28;20018;-71
2022/04/16 09:33:00;;;;;;;1.60;1.50;;;;;;;15.46;44.50;102476.41;4964531;28;20481;-72
2022/04/16 09:35:29;;;;;;;1.48;1.48;;;;;;;15.59;43.45;102472.72;4958769;28;20122;-71
2022/04/16 09:38:02;;;;;;;1.30;1.30;;;;;;;15.86;43.17;102466.09;4978284;28;20017;-71
2022/04/16 09:40:31;;;;;;;1.50;1.50;;;;;;;15.98;42.44;102465.06;4982465;28;20062;-71
2022/04/16 09:43:03;;;;;;;1.70;1.60;;;;;;;15.73;43.62;102467.06;4950357;28;20034;-71
2022/04/16 09:45:29;;;;;;;1.35;1.35;;;;;;;16.90;41.47;102456.22;4960613;28;20022;-71
2022/04/16 09:47:54;;;;;;;1.52;1.40;;;;;;;17.62;41.14;102459.56;4968474;28;20018;-71
2022/04/16 09:50:24;;;;;;;1.65;1.60;;;;;;;17.93;37.83;102447.88;4952685;28;20356;-72
2022/04/16 09:52:53;;;;;;;1.85;1.30;;;;;;;18.12;39.79;102474.63;4955259;28;20404;-71
2022/04/16 09:55:21;;;;;;;1.40;1.40;;;;;;;18.66;38.55;102466.00;4955543;28;20033;-71
2022/04/16 09:57:46;;;;;;;1.98;1.88;;;;;;;18.76;38.12;102461.44;4965283;28;20320;-72
2022/04/16 10:00:12;;;;;;;1.70;1.60;;;;;;;19.30;36.00;102466.06;4941612;28;20041;-72
2022/04/16 10:02:37;;;;;;;1.48;1.48;;;;;;;20.02;34.90;102463.34;4953270;28;20034;-71
2022/04/16 10:05:03;;;;;;;1.77;1.73;;;;;;;19.63;36.78;102453.81;4959241;28;20050;-72
2022/04/16 10:07:30;;;;;;;2.17;2.08;;;;;;;19.51;37.00;102460.41;4957977;28;20011;-73
2022/04/16 10:09:56;;;;;;;1.58;1.58;;;;;;;20.40;34.13;102462.09;4962026;28;20017;-72
2022/04/16 10:15:12;;;;;;;2.22;1.45;;;;;;;20.91;34.42;102454.09;4949348;28;20486;-72
2022/04/16 10:17:44;;;;;;;1.30;1.30;;;;;;;20.84;31.71;102458.47;4954906;28;20023;-71
2022/04/16 10:20:17;;;;;;;1.55;1.30;;;;;;;20.66;34.53;102466.59;4955204;28;20018;-72
2022/04/16 10:22:53;;;;;;;1.40;1.40;;;;;;;20.88;33.40;102459.81;4960904;28;20539;-71
2022/04/16 10:25:47;;;;;;;1.58;1.35;;;;;;;21.07;33.09;102474.00;4956329;28;20031;-71
2022/04/16 10:28:19;;;;;;;1.27;1.27;;;;;;;21.35;31.39;102469.16;4968664;28;20014;-71
2022/04/16 10:30:53;;;;;;;2.15;2.05;;;;;;;21.49;31.80;102464.97;4963625;28;20015;-72
2022/04/16 10:33:22;;;;;;;1.73;1.73;;;;;;;21.43;31.17;102468.31;4945033;28;20091;-71
2022/04/16 10:36:10;;;;;;;1.60;1.60;;;;;;;21.51;30.02;102462.13;4943870;28;20123;-71
2022/04/16 10:38:40;;;;;;;1.30;1.30;;;;;;;22.43;29.80;102454.63;4977408;28;20014;-71
2022/04/16 10:41:17;;;;;;;1.50;1.40;;;;;;;22.46;28.05;102454.28;4970258;28;20036;-72
2022/04/16 10:43:59;;;;;;;1.30;1.30;;;;;;;21.61;28.87;102454.75;4961017;28;20031;-72
2022/04/16 10:46:46;;;;;;;2.50;1.50;;;;;;;20.97;30.11;102451.75;4931816;28;20011;-71
2022/04/16 10:49:15;;;;;;;1.30;1.30;;;;;;;21.40;29.93;102460.59;4952860;28;20611;-71
2022/04/16 10:51:41;;;;;;;1.40;1.40;;;;;;;21.17;30.67;102452.31;4973115;28;20033;-71
2022/04/16 10:54:10;;;;;;;1.25;1.25;;;;;;;21.99;30.23;102449.66;4951378;28;20061;-71
2022/04/16 10:56:39;;;;;;;2.08;1.50;;;;;;;22.53;28.43;102449.03;4948398;28;20213;-72
2022/04/16 10:59:05;;;;;;;1.60;1.60;;;;;;;21.87;27.89;102451.88;4966969;28;20742;-72
2022/04/16 11:01:30;;;;;;;1.73;1.60;;;;;;;21.15;29.12;102447.09;4959247;28;20093;-71
2022/04/16 11:03:56;;;;;;;1.60;1.60;;;;;;;22.39;29.87;102444.34;4964328;28;20080;-72
2022/04/16 11:06:34;;;;;;;2.03;1.48;;;;;;;21.37;29.23;102447.47;4960938;28;20023;-71
2022/04/16 11:08:59;;;;;;;1.50;1.50;;;;;;;21.82;30.27;102446.13;4955894;28;20023;-72
2022/04/16 11:11:25;;;;;;;1.60;1.60;;;;;;;22.50;29.06;102443.97;4937413;28;20007;-71
2022/04/16 11:13:51;;;;;;;1.55;1.33;;;;;;;23.44;27.95;102441.28;4935040;28;20025;-71
2022/04/16 11:16:21;;;;;;;1.85;1.60;;;;;;;22.01;28.04;102444.94;4953790;28;20006;-71
2022/04/16 11:18:47;;;;;;;1.30;1.30;;;;;;;22.59;28.47;102447.47;4937846;28;20605;-71
2022/04/16 11:21:18;;;;;;;1.67;1.40;;;;;;;23.38;26.24;102444.72;4941176;28;20033;-73
2022/04/16 11:23:50;;;;;;;1.50;1.40;;;;;;;23.23;27.79;102428.44;4972691;28;20037;-72
2022/04/16 11:34:40;;;;;;;1.85;1.75;;;;;;;23.56;27.32;102438.97;4949954;28;20135;-71
2022/04/16 11:37:06;;;;;;;1.70;1.70;;;;;;;24.72;26.57;102437.78;4951498;28;20026;-72
2022/04/16 11:39:32;;;;;;;2.10;2.00;;;;;;;23.76;25.88;102439.31;4923920;28;20943;-71
2022/04/16 11:41:59;;;;;;;1.85;1.85;;;;;;;23.88;25.15;102434.31;4934454;28;20875;-72
2022/04/16 11:44:41;;;;;;;2.10;2.00;;;;;;;22.54;26.62;102431.81;4933935;28;20030;-72